Natural Dam, New York
Current Conditions -  °F | °C
As of 4:41 AM on Tuesday 21 Oct 2014 (Local Time) from KGTB Reporting Station
Overcast Overcast  
Wind Chill: 41°   Ceiling: 3700
Heat Index: 46°   Visibility: 10mi
Dew Point: 45°   Wind: 12mph
Humidity: 93%   Direction: 140°SE
Pressure: 29.83"   Gusts: NA
Location:  44.3309°N, 75.4775°W
Report Text: KGTB 210841Z AUTO 14010KT 10SM SCT029 OVC037 08/07 A2983 RMK AO2 RAB0806E0841DZE0806B0839E0840
Loading
Personal Weather Stations






























Interactive Weather Map
Tropical Storm Tracking
New forecast layout! Learn more

10-Day Weather Forecast

Advertisements
Track Severe Weather on mobile